http://www.schuttertalwetter.de (Christian Eisenberg)
Wetterdaten: aktuell Sonntag, 17.03.2019 16:14
Datum Zeit Temp. A. Luftdruck Regen Wind Richtung Richtung Sonnenschein Solar Windben
17.03.2019 16:14 5,9 C 1011,3 hPa 2,2 l/m 11,6 km/h (2 Bft) SO 146 0 min 25 W/m 16,1 km/h (3 Bft)
17.03.2019 15:15 6,8 C 1010,5 hPa 3,4 l/m 4,8 km/h (1 Bft) N-NW 337 0 min 35 W/m 11,3 km/h (2 Bft)
17.03.2019 14:15 12,6 C 1007,8 hPa 0,0 l/m 14,5 km/h (3 Bft) NW 315 0 min 14 W/m 27,4 km/h (5 Bft)
17.03.2019 13:15 14,9 C 1007,2 hPa 0,0 l/m 16,1 km/h (3 Bft) W-SW 247 20 min 290 W/m 35,4 km/h (5 Bft)
17.03.2019 12:15 16,2 C 1006,1 hPa 0,0 l/m 12,9 km/h (3 Bft) S 180 45 min 455 W/m 29,0 km/h (5 Bft)
17.03.2019 11:15 15,6 C 1006,2 hPa 0,0 l/m 14,5 km/h (3 Bft) S 180 60 min 721 W/m 25,7 km/h (4 Bft)
17.03.2019 10:15 15,0 C 1006,7 hPa 0,0 l/m 17,7 km/h (3 Bft) S-SO 157 60 min 605 W/m 24,1 km/h (4 Bft)
17.03.2019 09:15 14,2 C 1006,8 hPa 0,0 l/m 17,7 km/h (3 Bft) S-SO 157 60 min 387 W/m 29,0 km/h (5 Bft)
17.03.2019 08:15 13,3 C 1006,6 hPa 0,0 l/m 17,7 km/h (3 Bft) S-SO 157 30 min 248 W/m 27,4 km/h (5 Bft)
17.03.2019 07:15 11,1 C 1006,5 hPa 0,0 l/m 12,9 km/h (3 Bft) S-SO 157 5 min 44 W/m 19,3 km/h (3 Bft)
17.03.2019 06:15 12,1 C 1006,4 hPa 0,0 l/m 8,0 km/h (2 Bft) S 180 0 min 0 W/m 12,9 km/h (3 Bft)
17.03.2019 05:15 12,0 C 1006,3 hPa 0,0 l/m 16,1 km/h (3 Bft) S-SO 157 0 min 0 W/m 27,4 km/h (5 Bft)
17.03.2019 04:15 11,6 C 1006,8 hPa 0,0 l/m 12,9 km/h (3 Bft) S-SO 157 0 min 0 W/m 24,1 km/h (4 Bft)
17.03.2019 03:15 7,7 C 1007,4 hPa 0,0 l/m 4,8 km/h (1 Bft) S-SO 157 0 min 0 W/m 12,9 km/h (3 Bft)
17.03.2019 02:15 8,7 C 1008,1 hPa 0,0 l/m 9,7 km/h (2 Bft) S-SO 157 0 min 0 W/m 17,7 km/h (3 Bft)
17.03.2019 01:15 7,9 C 1008,9 hPa 0,0 l/m 4,8 km/h (1 Bft) S 180 0 min 0 W/m 9,7 km/h (2 Bft)
17.03.2019 00:15 11,3 C 1009,9 hPa 0,0 l/m 12,9 km/h (3 Bft) S-SO 157 0 min 0 W/m 20,9 km/h (4 Bft)
16.03.2019 23:15 12,1 C 1010,6 hPa 0,0 l/m 14,5 km/h (3 Bft) S-SO 157 0 min 0 W/m 20,9 km/h (4 Bft)
16.03.2019 22:15 12,9 C 1010,8 hPa 0,0 l/m 19,3 km/h (3 Bft) S-SO 157 0 min 0 W/m 30,6 km/h (5 Bft)
16.03.2019 21:15 11,9 C 1011,3 hPa 0,0 l/m 12,9 km/h (3 Bft) S-SO 157 0 min 0 W/m 17,7 km/h (3 Bft)
16.03.2019 20:15 9,9 C 1011,6 hPa 0,0 l/m 12,9 km/h (3 Bft) S 180 0 min 0 W/m 17,7 km/h (3 Bft)
16.03.2019 19:15 9,6 C 1012,1 hPa 0,0 l/m 8,0 km/h (2 Bft) S-SO 157 0 min 0 W/m 14,5 km/h (3 Bft)
16.03.2019 18:15 10,6 C 1012,3 hPa 0,0 l/m 8,0 km/h (2 Bft) S 180 25 min 12 W/m 11,3 km/h (2 Bft)
16.03.2019 17:15 13,0 C 1012,7 hPa 0,0 l/m 14,5 km/h (3 Bft) S-SO 157 15 min 174 W/m 20,9 km/h (4 Bft)
16.03.2019 17:00 13,0 C 1013,0 hPa 0,0 l/m 14,5 km/h (3 Bft) S 180 0 min 234 W/m 24,1 km/h (4 Bft)
_ Min-Zeit 16:14 11:40 - 06:35 - - - - 15:50
Minimum _ 5,9 C 1006,0 hPa - 0,0 km/h (0 Bft) - - - - 3,2 km/h (1 Bft)
_ Max-Zeit 12:30 17:00 15:00 10:30 - - 13:00 10:45 12:20
Maximum _ 16,3 C 1013,0 hPa 0,8 l/m 24,1 km/h
S-SO (4 Bft)
- - 5 min 793 W/m 38,6 km/h
S (6 Bft)
Durchschnitt _ 11,6 C 1009,0 hPa #5,6 l/m 11,6 km/h (2 Bft) S-SO - #4:40 h 274 W/m 20,3 km/h (4 Bft)